createdAt,value
2022-10-31T00:00:09.722Z,100738.66
2022-10-31T00:02:58.600Z,100736.88
2022-10-31T00:05:49.793Z,100734.44
2022-10-31T00:08:38.195Z,100743.97
2022-10-31T00:11:28.326Z,100745.22
2022-10-31T00:14:16.848Z,100745.19
2022-10-31T00:17:05.400Z,100747.03
2022-10-31T00:19:53.916Z,100745.19
2022-10-31T00:22:42.386Z,100751.75
2022-10-31T00:25:32.191Z,100753.41
2022-10-31T00:28:22.051Z,100746.38
2022-10-31T00:31:12.568Z,100748.81
2022-10-31T00:34:01.090Z,100756.25
2022-10-31T00:36:49.588Z,100754.19
2022-10-31T00:39:38.056Z,100757.47
2022-10-31T00:42:26.569Z,100752.09
2022-10-31T00:45:16.602Z,100754.97
2022-10-31T00:48:05.619Z,100751.66
2022-10-31T00:50:54.092Z,100753.69
2022-10-31T00:53:42.559Z,100756.34
2022-10-31T00:56:30.994Z,100751.41
2022-10-31T00:59:19.557Z,100761.91
2022-10-31T01:02:09.505Z,100761.91
2022-10-31T01:04:58.079Z,100762.28
2022-10-31T01:07:46.602Z,100766.22
2022-10-31T01:10:35.067Z,100759.41
2022-10-31T01:13:23.523Z,100779.19
2022-10-31T01:16:14.012Z,100769.50
2022-10-31T01:19:03.920Z,100763.53
2022-10-31T01:21:52.345Z,100767.22
2022-10-31T01:24:40.876Z,100765.94
2022-10-31T01:27:29.303Z,100764.31
2022-10-31T01:30:17.897Z,100760.16
2022-10-31T01:33:06.904Z,100773.38
2022-10-31T01:35:56.827Z,100766.34
2022-10-31T01:39:04.561Z,100770.50
2022-10-31T01:41:54.458Z,100764.72
2022-10-31T01:45:01.553Z,100763.84
2022-10-31T01:47:50.888Z,100765.50
2022-10-31T01:50:40.642Z,100776.19
2022-10-31T01:53:30.529Z,100763.84
2022-10-31T01:56:21.678Z,100771.66
2022-10-31T01:59:11.933Z,100769.56
2022-10-31T02:02:00.616Z,100765.69
2022-10-31T02:04:51.028Z,100765.09
2022-10-31T02:07:42.598Z,100769.59
2022-10-31T02:10:33.426Z,100768.56
2022-10-31T02:13:22.732Z,100767.72
2022-10-31T02:16:12.461Z,100770.41
2022-10-31T02:19:00.996Z,100774.09
2022-10-31T02:21:53.495Z,100777.38
2022-10-31T02:24:58.821Z,100776.53
2022-10-31T02:28:12.337Z,100779.00
2022-10-31T02:31:16.317Z,100785.53
2022-10-31T02:34:09.499Z,100782.06
2022-10-31T02:37:01.117Z,100786.00
2022-10-31T02:39:56.920Z,100782.69
2022-10-31T02:42:51.022Z,100790.03
2022-10-31T02:45:46.668Z,100786.38
2022-10-31T02:48:38.168Z,100796.63
2022-10-31T02:51:28.151Z,100780.16
2022-10-31T02:54:24.860Z,100784.69
2022-10-31T02:57:13.403Z,100791.91
2022-10-31T03:00:05.401Z,100788.78
2022-10-31T03:03:00.279Z,100794.13
2022-10-31T03:05:56.355Z,100799.88
2022-10-31T03:08:50.160Z,100800.28
2022-10-31T03:11:45.777Z,100798.59
2022-10-31T03:14:41.363Z,100805.63
2022-10-31T03:17:37.255Z,100796.94
2022-10-31T03:20:30.217Z,100797.78
2022-10-31T03:23:21.856Z,100798.59
2022-10-31T03:26:12.236Z,100794.50
2022-10-31T03:29:06.670Z,100805.19
2022-10-31T03:31:58.372Z,100798.19
2022-10-31T03:34:48.384Z,100797.34
2022-10-31T03:37:38.224Z,100810.53
2022-10-31T03:40:29.750Z,100811.31
2022-10-31T03:46:11.485Z,100812.97
2022-10-31T03:49:00.525Z,100800.66
2022-10-31T03:51:52.906Z,100815.06
2022-10-31T03:54:45.795Z,100808.84
2022-10-31T03:57:39.337Z,100814.19
2022-10-31T04:00:27.831Z,100812.53
2022-10-31T04:03:18.418Z,100817.50
2022-10-31T04:06:09.511Z,100814.56
2022-10-31T04:09:00.315Z,100824.06
2022-10-31T04:11:51.670Z,100819.09
2022-10-31T04:14:42.061Z,100818.25
2022-10-31T04:17:32.901Z,100824.00
2022-10-31T04:20:21.523Z,100827.06
2022-10-31T04:23:18.365Z,100824.00
2022-10-31T04:26:07.242Z,100820.72
2022-10-31T04:28:55.747Z,100830.56
2022-10-31T04:31:45.578Z,100828.09
2022-10-31T04:34:34.112Z,100820.31
2022-10-31T04:37:22.594Z,100824.41
2022-10-31T04:40:12.307Z,100829.75
2022-10-31T04:43:01.055Z,100828.09
2022-10-31T04:45:49.756Z,100838.78
2022-10-31T04:48:39.640Z,100833.44
2022-10-31T04:51:28.174Z,100830.78
2022-10-31T04:54:16.644Z,100841.06
2022-10-31T04:57:05.347Z,100831.81
2022-10-31T04:59:53.814Z,100835.50
2022-10-31T05:02:46.188Z,100836.50
2022-10-31T05:05:36.117Z,100839.38
2022-10-31T05:08:24.568Z,100829.31
2022-10-31T05:11:13.039Z,100840.84
2022-10-31T05:14:01.624Z,100841.84
2022-10-31T05:16:51.424Z,100842.03
2022-10-31T05:25:54.664Z,100835.50
2022-10-31T05:28:52.806Z,100837.09
2022-10-31T05:31:45.119Z,100848.38
2022-10-31T05:34:50.355Z,100836.81
2022-10-31T05:37:55.342Z,100840.97
2022-10-31T05:40:45.178Z,100843.66
2022-10-31T05:43:33.866Z,100842.00
2022-10-31T05:46:22.510Z,100845.28
2022-10-31T05:49:11.088Z,100846.31
2022-10-31T05:51:59.534Z,100853.44
2022-10-31T05:54:47.962Z,100857.19
2022-10-31T05:57:37.852Z,100859.41
2022-10-31T06:00:27.563Z,100862.09
2022-10-31T06:03:15.995Z,100858.44
2022-10-31T06:06:04.550Z,100861.72
2022-10-31T06:08:53.064Z,100869.47
2022-10-31T06:11:41.550Z,100864.13
2022-10-31T06:14:33.820Z,100871.53
2022-10-31T06:17:22.262Z,100873.81
2022-10-31T06:20:11.514Z,100871.13
2022-10-31T06:23:00.390Z,100871.59
2022-10-31T06:25:51.496Z,100870.78
2022-10-31T06:28:40.074Z,100875.28
2022-10-31T06:31:29.936Z,100876.13
2022-10-31T06:34:18.397Z,100888.06
2022-10-31T06:37:08.674Z,100891.00
2022-10-31T06:39:57.225Z,100899.00
2022-10-31T06:42:45.685Z,100898.84
2022-10-31T06:45:34.220Z,100901.63
2022-10-31T06:48:24.326Z,100905.78
2022-10-31T06:51:13.268Z,100911.13
2022-10-31T06:54:01.877Z,100907.81
2022-10-31T06:56:50.673Z,100906.16
2022-10-31T06:59:39.246Z,100909.47
2022-10-31T07:02:27.810Z,100916.84
2022-10-31T07:05:17.820Z,100916.00
2022-10-31T07:08:08.167Z,100913.56
2022-10-31T07:10:58.955Z,100922.59
2022-10-31T07:13:48.633Z,100924.38
2022-10-31T07:16:37.120Z,100926.59
2022-10-31T07:19:25.657Z,100923.47
2022-10-31T07:22:15.519Z,100922.66
2022-10-31T07:25:04.199Z,100923.66
2022-10-31T07:27:52.742Z,100921.81
2022-10-31T07:30:41.416Z,100933.91
2022-10-31T07:33:29.921Z,100928.94
2022-10-31T07:36:18.507Z,100927.94
2022-10-31T07:39:08.464Z,100937.88
2022-10-31T07:42:06.039Z,100937.81
2022-10-31T07:45:13.628Z,100935.31
2022-10-31T07:48:03.673Z,100934.03
2022-10-31T07:50:53.394Z,100934.66
2022-10-31T07:53:56.844Z,100938.03
2022-10-31T07:57:02.265Z,100935.69
2022-10-31T07:59:51.344Z,100940.34
2022-10-31T08:02:39.801Z,100940.72
2022-10-31T08:05:28.319Z,100943.00
2022-10-31T08:08:17.565Z,100943.13
2022-10-31T08:11:09.145Z,100938.47
2022-10-31T08:13:59.010Z,100933.50
2022-10-31T08:16:47.549Z,100937.56
2022-10-31T08:19:35.995Z,100939.94
2022-10-31T08:22:24.495Z,100933.16
2022-10-31T08:25:12.921Z,100939.94
2022-10-31T08:28:04.086Z,100932.00
2022-10-31T08:30:53.886Z,100928.06
2022-10-31T08:33:42.389Z,100936.44
2022-10-31T08:36:31.061Z,100929.84
2022-10-31T08:39:19.564Z,100930.00
2022-10-31T08:42:08.116Z,100923.13
2022-10-31T08:44:56.734Z,100928.97
2022-10-31T08:47:46.593Z,100929.78
2022-10-31T08:50:37.250Z,100930.41
2022-10-31T08:53:25.844Z,100916.25
2022-10-31T08:56:14.312Z,100923.13
2022-10-31T08:59:03.531Z,100924.97
2022-10-31T09:01:52.168Z,100918.19
2022-10-31T09:04:42.291Z,100918.63
2022-10-31T09:07:30.728Z,100926.28
2022-10-31T09:10:19.310Z,100916.38
2022-10-31T09:13:09.861Z,100922.19
2022-10-31T09:15:59.668Z,100927.56
2022-10-31T09:18:48.221Z,100925.09
2022-10-31T09:21:38.088Z,100922.63
2022-10-31T09:27:09.563Z,100930.16
2022-10-31T09:29:58.263Z,100922.34
2022-10-31T09:32:45.981Z,100925.72
2022-10-31T09:35:35.195Z,100928.44
2022-10-31T09:38:25.318Z,100929.72
2022-10-31T09:41:22.288Z,100926.81
2022-10-31T09:46:54.711Z,100924.56
2022-10-31T09:50:02.348Z,100917.34
2022-10-31T09:52:56.866Z,100919.63
2022-10-31T09:58:29.179Z,100924.50
2022-10-31T10:01:30.817Z,100930.53
2022-10-31T10:04:35.629Z,100920.22
2022-10-31T10:07:35.427Z,100920.19
2022-10-31T10:10:33.320Z,100912.16
2022-10-31T10:13:33.722Z,100913.44
2022-10-31T10:16:34.652Z,100909.75
2022-10-31T10:19:36.762Z,100903.91
2022-10-31T10:22:32.515Z,100909.63
2022-10-31T10:28:20.326Z,100897.06
2022-10-31T10:31:13.069Z,100893.19
2022-10-31T10:34:04.855Z,100895.28
2022-10-31T10:39:48.128Z,100897.59
2022-10-31T10:42:55.371Z,100890.75
2022-10-31T10:46:06.532Z,100882.75
2022-10-31T10:49:03.119Z,100884.66
2022-10-31T10:55:11.507Z,100877.03
2022-10-31T10:58:03.206Z,100877.03
2022-10-31T11:00:52.905Z,100872.28
2022-10-31T11:03:41.644Z,100868.56
2022-10-31T11:06:31.453Z,100868.16
2022-10-31T11:09:20.558Z,100860.72
2022-10-31T11:12:11.100Z,100864.25
2022-10-31T11:15:01.406Z,100856.19
2022-10-31T11:17:52.131Z,100853.50
2022-10-31T11:20:40.832Z,100854.94
2022-10-31T11:23:31.283Z,100850.59
2022-10-31T11:26:22.728Z,100847.50
2022-10-31T11:29:17.478Z,100839.19
2022-10-31T11:32:06.425Z,100833.47
2022-10-31T11:34:56.976Z,100835.94
2022-10-31T11:37:46.789Z,100829.75
2022-10-31T11:40:36.871Z,100826.47
2022-10-31T11:43:25.644Z,100828.16
2022-10-31T11:46:16.575Z,100824.41
2022-10-31T11:49:05.859Z,100811.22
2022-10-31T11:51:56.428Z,100823.59
2022-10-31T11:54:48.934Z,100807.47
2022-10-31T11:57:47.582Z,100812.25
2022-10-31T12:00:41.866Z,100810.19
2022-10-31T12:03:39.392Z,100799.63
2022-10-31T12:06:31.992Z,100799.59
2022-10-31T12:09:23.377Z,100794.91
2022-10-31T12:12:34.368Z,100797.16
2022-10-31T12:15:34.052Z,100794.28
2022-10-31T12:18:33.178Z,100789.31
2022-10-31T12:21:30.528Z,100784.34
2022-10-31T12:24:31.922Z,100785.81
2022-10-31T12:27:27.836Z,100782.09
2022-10-31T12:30:21.371Z,100774.91
2022-10-31T12:33:22.722Z,100779.44
2022-10-31T12:36:22.237Z,100773.63
2022-10-31T12:39:27.130Z,100771.53
2022-10-31T12:42:24.324Z,100764.97
2022-10-31T12:45:31.416Z,100763.34
2022-10-31T12:48:57.533Z,100761.47
2022-10-31T12:51:56.088Z,100755.94
2022-10-31T12:55:00.925Z,100754.69
2022-10-31T12:57:53.314Z,100751.34
2022-10-31T13:00:44.877Z,100746.00
2022-10-31T13:03:37.697Z,100746.41
2022-10-31T13:06:30.461Z,100746.84
2022-10-31T13:09:23.074Z,100738.81
2022-10-31T13:12:13.399Z,100736.56
2022-10-31T13:15:06.486Z,100730.34
2022-10-31T13:17:58.581Z,100733.22
2022-10-31T13:20:52.998Z,100731.56
2022-10-31T13:23:50.947Z,100728.69
2022-10-31T13:26:44.881Z,100721.47
2022-10-31T13:29:35.622Z,100718.38
2022-10-31T13:32:24.143Z,100711.72
2022-10-31T13:35:19.075Z,100714.19
2022-10-31T13:38:22.591Z,100713.63
2022-10-31T13:41:21.132Z,100716.34
2022-10-31T13:44:16.075Z,100713.84
2022-10-31T13:47:04.605Z,100711.38
2022-10-31T13:49:53.203Z,100710.13
2022-10-31T13:52:41.730Z,100710.09
2022-10-31T13:55:41.400Z,100706.84
2022-10-31T13:58:31.442Z,100700.41
2022-10-31T14:01:23.433Z,100704.13
2022-10-31T14:04:23.793Z,100705.16
2022-10-31T14:07:14.932Z,100698.78
2022-10-31T14:10:06.958Z,100690.31
2022-10-31T14:12:56.589Z,100686.22
2022-10-31T14:15:53.935Z,100685.38
2022-10-31T14:18:47.531Z,100676.72
2022-10-31T14:21:41.017Z,100678.56
2022-10-31T14:24:39.208Z,100673.44
2022-10-31T14:27:47.522Z,100672.59
2022-10-31T14:30:36.895Z,100671.13
2022-10-31T14:33:27.776Z,100667.84
2022-10-31T14:36:23.588Z,100661.25
2022-10-31T14:39:17.558Z,100660.22
2022-10-31T14:42:17.395Z,100656.94
2022-10-31T14:45:18.418Z,100660.66
2022-10-31T14:48:14.993Z,100656.09
2022-10-31T14:51:06.015Z,100666.00
2022-10-31T14:53:57.475Z,100656.50
2022-10-31T14:56:57.833Z,100652.38
2022-10-31T14:59:50.302Z,100654.25
2022-10-31T15:02:43.551Z,100659.81
2022-10-31T15:05:32.670Z,100649.69
2022-10-31T15:08:36.736Z,100646.97
2022-10-31T15:11:27.661Z,100646.19
2022-10-31T15:14:24.966Z,100631.78
2022-10-31T15:17:14.294Z,100642.66
2022-10-31T15:20:02.730Z,100632.59
2022-10-31T15:22:52.055Z,100639.22
2022-10-31T15:25:40.515Z,100629.72
2022-10-31T15:28:32.197Z,100635.28
2022-10-31T15:31:20.970Z,100635.06
2022-10-31T15:34:17.673Z,100634.44
2022-10-31T15:37:06.524Z,100632.81
2022-10-31T15:39:55.144Z,100621.22
2022-10-31T15:42:44.565Z,100628.06
2022-10-31T15:45:34.503Z,100628.47
2022-10-31T15:48:25.943Z,100624.16
2022-10-31T15:51:14.568Z,100625.22
2022-10-31T15:54:03.249Z,100613.03
2022-10-31T15:56:51.849Z,100614.88
2022-10-31T15:59:41.625Z,100612.00
2022-10-31T16:02:31.716Z,100611.16
2022-10-31T16:05:21.894Z,100608.50
2022-10-31T16:08:27.624Z,100605.81
2022-10-31T16:11:27.644Z,100592.66
2022-10-31T16:14:25.277Z,100598.41
2022-10-31T16:17:15.682Z,100599.19
2022-10-31T16:20:07.922Z,100600.00
2022-10-31T16:22:58.198Z,100606.19
2022-10-31T16:25:47.173Z,100598.34
2022-10-31T16:28:39.609Z,100601.25
2022-10-31T16:31:31.932Z,100596.53
2022-10-31T16:34:26.631Z,100604.56
2022-10-31T16:37:19.087Z,100600.44
2022-10-31T16:40:08.675Z,100606.00
2022-10-31T16:42:59.947Z,100602.47
2022-10-31T16:45:51.286Z,100601.25
2022-10-31T16:48:39.944Z,100605.34
2022-10-31T16:51:28.474Z,100604.31
2022-10-31T16:54:18.579Z,100600.84
2022-10-31T16:57:08.091Z,100601.63
2022-10-31T16:59:56.824Z,100598.13
2022-10-31T17:02:45.900Z,100603.25
2022-10-31T17:05:34.762Z,100605.31
2022-10-31T17:08:24.942Z,100606.16
2022-10-31T17:11:17.882Z,100601.19
2022-10-31T17:14:06.871Z,100598.75
2022-10-31T17:16:58.086Z,100605.31
2022-10-31T17:19:46.687Z,100602.81
2022-10-31T17:22:35.310Z,100600.34
2022-10-31T17:25:26.178Z,100591.44
2022-10-31T17:28:16.492Z,100598.44
2022-10-31T17:31:05.096Z,100592.09
2022-10-31T17:34:01.956Z,100588.44
2022-10-31T17:36:52.763Z,100587.16
2022-10-31T17:39:41.204Z,100591.72
2022-10-31T17:42:29.655Z,100569.91
2022-10-31T17:45:19.807Z,100574.81
2022-10-31T17:48:10.022Z,100576.28
2022-10-31T17:51:01.965Z,100581.00
2022-10-31T17:53:50.481Z,100577.72
2022-10-31T17:56:38.972Z,100576.06
2022-10-31T17:59:29.974Z,100584.94
2022-10-31T18:02:19.974Z,100577.31
2022-10-31T18:05:09.208Z,100571.56
2022-10-31T18:08:02.456Z,100578.56
2022-10-31T18:10:52.036Z,100569.91
2022-10-31T18:13:40.934Z,100567.44
2022-10-31T18:16:29.488Z,100573.81
2022-10-31T18:19:19.567Z,100581.63
2022-10-31T18:22:08.166Z,100577.72
2022-10-31T18:25:01.613Z,100571.13
2022-10-31T18:27:50.540Z,100569.91
2022-10-31T18:30:41.456Z,100567.41
2022-10-31T18:33:30.252Z,100563.72
2022-10-31T18:36:20.097Z,100560.41
2022-10-31T18:39:08.769Z,100559.00
2022-10-31T18:41:57.324Z,100554.63
2022-10-31T18:44:45.780Z,100555.47
2022-10-31T18:47:34.257Z,100561.44
2022-10-31T18:50:23.517Z,100555.69
2022-10-31T18:53:13.487Z,100557.97
2022-10-31T18:56:02.038Z,100555.91
2022-10-31T18:58:51.001Z,100546.00
2022-10-31T19:01:39.807Z,100555.91
2022-10-31T19:04:28.429Z,100556.72
2022-10-31T19:07:16.880Z,100541.91
2022-10-31T19:10:07.747Z,100549.28
2022-10-31T19:12:56.264Z,100539.38
2022-10-31T19:15:44.701Z,100544.72
2022-10-31T19:18:33.123Z,100534.47
2022-10-31T19:21:21.694Z,100532.44
2022-10-31T19:24:11.018Z,100530.38
2022-10-31T19:27:01.015Z,100535.72
2022-10-31T19:29:52.458Z,100534.06
2022-10-31T19:32:40.979Z,100529.13
2022-10-31T19:35:29.455Z,100533.03
2022-10-31T19:38:17.883Z,100523.97
2022-10-31T19:41:08.419Z,100529.34
2022-10-31T19:44:00.431Z,100523.97
2022-10-31T19:46:53.566Z,100522.34
2022-10-31T19:49:42.507Z,100518.00
2022-10-31T19:52:30.909Z,100516.38
2022-10-31T19:55:19.392Z,100515.97
2022-10-31T19:58:07.890Z,100506.47
2022-10-31T20:03:48.599Z,100497.47
2022-10-31T20:06:38.772Z,100494.97
2022-10-31T20:09:27.201Z,100494.13
2022-10-31T20:12:18.770Z,100493.34
2022-10-31T20:15:08.219Z,100495.41
2022-10-31T20:17:58.207Z,100492.50
2022-10-31T20:20:46.642Z,100490.03
2022-10-31T20:23:35.480Z,100487.13
2022-10-31T20:26:24.033Z,100485.50
2022-10-31T20:29:16.116Z,100481.78
2022-10-31T20:32:04.831Z,100492.09
2022-10-31T20:34:54.653Z,100492.72
2022-10-31T20:37:43.020Z,100490.44
2022-10-31T20:40:32.686Z,100481.78
2022-10-31T20:43:21.118Z,100476.84
2022-10-31T20:46:12.288Z,100473.56
2022-10-31T20:49:00.801Z,100465.97
2022-10-31T20:51:50.556Z,100468.22
2022-10-31T20:54:39.042Z,100469.44
2022-10-31T20:57:27.544Z,100468.03
2022-10-31T21:00:16.437Z,100457.09
2022-10-31T21:03:05.195Z,100451.75
2022-10-31T21:05:55.428Z,100443.09
2022-10-31T21:08:45.652Z,100433.22
2022-10-31T21:11:34.225Z,100439.81
2022-10-31T21:14:22.955Z,100444.56
2022-10-31T21:17:11.460Z,100445.16
2022-10-31T21:20:00.014Z,100444.75
2022-10-31T21:22:48.743Z,100454.63
2022-10-31T21:25:41.453Z,100436.91
2022-10-31T21:28:29.932Z,100437.75
2022-10-31T21:31:20.165Z,100440.63
2022-10-31T21:34:09.119Z,100433.22
2022-10-31T21:36:57.627Z,100438.78
2022-10-31T21:39:50.639Z,100444.13
2022-10-31T21:42:40.786Z,100429.72
2022-10-31T21:45:29.195Z,100424.56
2022-10-31T21:48:17.617Z,100431.56
2022-10-31T21:51:09.088Z,100414.66
2022-10-31T21:54:19.177Z,100422.09
2022-10-31T21:57:07.624Z,100415.31
2022-10-31T21:59:57.403Z,100412.19
2022-10-31T22:02:45.909Z,100403.97
2022-10-31T22:05:35.515Z,100394.72
2022-10-31T22:08:23.983Z,100395.34
2022-10-31T22:11:14.653Z,100393.91
2022-10-31T22:14:03.708Z,100390.19
2022-10-31T22:16:53.543Z,100386.72
2022-10-31T22:19:42.009Z,100395.97
2022-10-31T22:22:30.469Z,100394.09
2022-10-31T22:25:19.097Z,100393.69
2022-10-31T22:28:08.061Z,100385.06
2022-10-31T22:30:56.509Z,100385.44
2022-10-31T22:33:46.789Z,100382.56
2022-10-31T22:36:35.684Z,100380.31
